Time;durP1;ratioP1;P1;durP2;ratioP2;P2;SDS_P1;SDS_P2;PMS_P1;PMS_P2;Temp;Humidity;BMP_temperature;BMP_pressure;BME280_temperature;BME280_humidity;BME280_pressure;Samples;Min_cycle;Max_cycle;Signal;HPM_P1;HPM_P2
2022/05/11 00:01:45;;;;;;;7.68;5.80;;;;;;;12.24;100.00;101200.75;10462870;28;20068;-67
2022/05/11 00:06:46;;;;;;;10.63;5.25;;;;;;;12.14;100.00;101190.41;10462667;28;20040;-68
2022/05/11 00:11:46;;;;;;;13.48;4.72;;;;;;;12.19;100.00;101190.44;10463096;28;20515;-68
2022/05/11 00:16:47;;;;;;;8.55;5.40;;;;;;;12.22;100.00;101198.25;10461179;28;20063;-67
2022/05/11 00:21:47;;;;;;;8.32;4.80;;;;;;;12.28;100.00;101197.22;10463058;28;20044;-68
2022/05/11 00:26:48;;;;;;;9.10;5.68;;;;;;;12.37;100.00;101172.72;10465952;28;20036;-68
2022/05/11 00:31:50;;;;;;;13.70;5.80;;;;;;;12.44;100.00;101167.00;10461567;28;20044;-67
2022/05/11 00:36:50;;;;;;;10.23;5.80;;;;;;;12.44;100.00;101155.94;10462320;28;20044;-68
2022/05/11 00:41:51;;;;;;;15.50;5.35;;;;;;;12.42;100.00;101153.47;10462344;28;20114;-68
2022/05/11 00:46:55;;;;;;;11.73;5.30;;;;;;;12.43;100.00;101148.78;10461503;28;20041;-68
2022/05/11 00:51:58;;;;;;;9.85;5.00;;;;;;;12.44;100.00;101134.72;10461975;28;20109;-68
2022/05/11 00:57:00;;;;;;;12.48;5.63;;;;;;;12.38;100.00;101126.63;10461735;28;20065;-67
2022/05/11 01:02:04;;;;;;;9.18;4.90;;;;;;;12.36;100.00;101115.00;10458521;28;20484;-67
2022/05/11 01:07:04;;;;;;;9.63;5.15;;;;;;;12.33;100.00;101116.38;10500680;28;20024;-67
2022/05/11 01:12:07;;;;;;;10.85;5.05;;;;;;;12.34;100.00;101128.22;10500433;28;20040;-67
2022/05/11 01:17:08;;;;;;;8.15;5.18;;;;;;;12.32;100.00;101132.09;10483625;28;20052;-68
2022/05/11 01:22:39;;;;;;;9.35;5.20;;;;;;;12.30;100.00;101125.19;10500245;28;20405;-67
2022/05/11 01:27:44;;;;;;;11.73;5.88;;;;;;;12.20;100.00;101106.56;10468414;28;20101;-68
2022/05/11 01:32:51;;;;;;;10.75;5.68;;;;;;;12.22;100.00;101112.66;10456859;28;20052;-66
2022/05/11 01:38:04;;;;;;;8.82;4.80;;;;;;;12.15;100.00;101100.97;10458151;28;20052;-66
2022/05/11 01:43:04;;;;;;;8.50;4.40;;;;;;;12.27;100.00;101112.72;10457946;28;20045;-67
2022/05/11 01:48:05;;;;;;;14.82;4.30;;;;;;;12.28;100.00;101111.63;10459752;28;20036;-66
2022/05/11 01:53:05;;;;;;;8.15;4.50;;;;;;;12.32;100.00;101109.19;10442886;28;20045;-66
2022/05/11 01:58:07;;;;;;;7.32;4.07;;;;;;;12.42;100.00;101100.16;10453537;28;20029;-66
2022/05/11 02:03:07;;;;;;;8.52;4.32;;;;;;;12.49;100.00;101084.22;10494184;28;20037;-66
2022/05/11 02:08:08;;;;;;;8.50;4.03;;;;;;;12.55;100.00;101083.16;10499512;28;20033;-67
2022/05/11 02:13:09;;;;;;;10.55;4.55;;;;;;;12.58;100.00;101084.56;10499919;28;20040;-66
2022/05/11 02:18:10;;;;;;;8.38;5.35;;;;;;;12.59;100.00;101087.06;10498221;28;20062;-66
2022/05/11 02:23:15;;;;;;;9.43;4.25;;;;;;;12.47;100.00;101062.38;10482821;28;20044;-66
2022/05/11 02:28:16;;;;;;;10.25;4.32;;;;;;;12.53;100.00;101071.56;10464241;28;20037;-67
2022/05/11 02:33:16;;;;;;;8.10;4.60;;;;;;;12.48;100.00;101072.31;10457484;28;20123;-67
2022/05/11 02:38:19;;;;;;;7.05;4.47;;;;;;;12.48;100.00;101065.97;10455774;28;20033;-66
2022/05/11 02:43:20;;;;;;;11.25;4.63;;;;;;;12.49;100.00;101060.19;10472356;28;20405;-66
2022/05/11 02:48:23;;;;;;;12.23;4.50;;;;;;;12.56;100.00;101059.97;10438563;28;20037;-66
2022/05/11 02:53:24;;;;;;;9.38;4.63;;;;;;;12.57;100.00;101056.13;10458188;28;20036;-66
2022/05/11 02:58:27;;;;;;;8.77;4.63;;;;;;;12.65;100.00;101065.84;10453211;28;20482;-66
2022/05/11 03:03:33;;;;;;;8.57;4.70;;;;;;;12.64;100.00;101062.25;10454940;28;20029;-67
2022/05/11 03:08:34;;;;;;;8.40;4.00;;;;;;;12.64;100.00;101062.25;10456757;28;20499;-66
2022/05/11 03:13:35;;;;;;;7.13;4.75;;;;;;;12.57;100.00;101044.22;10455098;28;20041;-66
2022/05/11 03:18:35;;;;;;;8.88;5.20;;;;;;;12.63;100.00;101049.56;10455953;28;20065;-69
2022/05/11 03:23:35;;;;;;;7.78;4.93;;;;;;;12.66;100.00;101043.47;10457555;28;20033;-67
2022/05/11 03:28:36;;;;;;;8.38;4.38;;;;;;;12.61;100.00;101029.66;10487069;28;20036;-66
2022/05/11 03:38:55;;;;;;;10.30;5.03;;;;;;;12.62;100.00;101011.97;10455567;28;20033;-67
2022/05/11 03:43:56;;;;;;;6.97;4.70;;;;;;;12.72;100.00;101025.84;10454710;28;20339;-67
2022/05/11 03:48:56;;;;;;;12.25;5.90;;;;;;;12.74;100.00;101016.47;10457399;28;20033;-66
2022/05/11 03:53:57;;;;;;;10.10;5.75;;;;;;;12.74;100.00;101009.00;10481200;28;20047;-67
2022/05/11 03:58:57;;;;;;;17.45;7.05;;;;;;;12.79;100.00;100999.94;10495212;28;20044;-68
2022/05/11 04:03:58;;;;;;;12.40;6.75;;;;;;;12.82;100.00;100991.13;10493170;28;20044;-68
2022/05/11 04:08:58;;;;;;;8.48;5.78;;;;;;;12.85;100.00;100993.34;10495880;28;20037;-67
2022/05/11 04:13:59;;;;;;;13.48;5.35;;;;;;;12.87;100.00;101000.25;10497106;28;20092;-67
2022/05/11 04:18:59;;;;;;;11.13;6.13;;;;;;;12.52;100.00;100923.50;10496131;28;20044;-69
2022/05/11 04:24:00;;;;;;;7.57;4.40;;;;;;;12.90;100.00;100987.84;10503032;28;20055;-67
2022/05/11 04:29:00;;;;;;;7.97;4.25;;;;;;;12.94;100.00;100983.47;10485285;28;20040;-67
2022/05/11 04:34:01;;;;;;;7.53;4.20;;;;;;;12.93;100.00;100977.06;10499682;28;20531;-67
2022/05/11 04:39:02;;;;;;;9.32;5.60;;;;;;;12.97;100.00;100977.38;10485935;28;20527;-68
2022/05/11 04:44:02;;;;;;;10.77;4.68;;;;;;;13.02;100.00;100980.19;10460572;28;20041;-67
2022/05/11 04:49:23;;;;;;;9.85;4.75;;;;;;;13.02;100.00;100954.47;10463259;28;20112;-68
2022/05/11 04:54:23;;;;;;;11.13;6.55;;;;;;;13.15;100.00;100972.47;10446322;28;20099;-69
2022/05/11 04:59:24;;;;;;;12.50;4.43;;;;;;;13.21;100.00;100977.78;10460386;28;20063;-68
2022/05/11 05:04:26;;;;;;;10.27;4.78;;;;;;;13.27;100.00;100976.72;10458933;28;20466;-68
2022/05/11 05:09:26;;;;;;;8.27;4.28;;;;;;;13.29;100.00;100957.09;10458297;28;20045;-68
2022/05/11 05:14:27;;;;;;;10.15;4.93;;;;;;;13.40;100.00;100958.81;10460614;28;20063;-67
2022/05/11 05:19:28;;;;;;;8.80;4.53;;;;;;;13.47;100.00;100962.13;10459039;28;20066;-67
2022/05/11 05:24:30;;;;;;;10.93;4.38;;;;;;;13.56;100.00;100969.91;10441706;28;20055;-68
2022/05/11 05:34:50;;;;;;;9.05;4.53;;;;;;;13.79;100.00;100972.19;10456681;28;20052;-68
2022/05/11 05:39:50;;;;;;;10.30;4.85;;;;;;;13.83;100.00;100951.19;10459718;28;20040;-67
2022/05/11 05:44:50;;;;;;;12.02;5.75;;;;;;;13.83;100.00;100951.19;10460095;28;20052;-67
2022/05/11 05:49:51;;;;;;;8.60;4.60;;;;;;;13.93;100.00;100964.19;10457665;28;20107;-67
2022/05/11 05:54:52;;;;;;;14.40;5.65;;;;;;;13.97;100.00;100968.06;10457327;28;20029;-68
2022/05/11 05:59:52;;;;;;;9.00;4.97;;;;;;;13.97;100.00;100945.09;10456807;28;20036;-67
2022/05/11 06:04:53;;;;;;;13.77;5.22;;;;;;;14.20;100.00;100950.09;10510817;28;20036;-67
2022/05/11 06:09:53;;;;;;;12.10;5.00;;;;;;;14.35;100.00;100940.13;10501273;28;20029;-67
2022/05/11 06:14:54;;;;;;;16.10;5.65;;;;;;;14.52;100.00;100943.44;10501019;28;20055;-67
2022/05/11 06:19:54;;;;;;;8.25;4.95;;;;;;;14.61;100.00;100941.78;10498167;28;20048;-66
2022/05/11 06:24:55;;;;;;;10.80;5.82;;;;;;;14.71;100.00;100940.94;10499842;28;20223;-68
2022/05/11 06:29:59;;;;;;;13.10;5.88;;;;;;;14.59;100.00;100930.13;10496444;28;20032;-67
2022/05/11 06:34:59;;;;;;;11.05;5.68;;;;;;;14.73;100.00;100947.84;10497384;28;20135;-68
2022/05/11 06:40:00;;;;;;;8.95;5.65;;;;;;;14.93;100.00;100941.44;10499343;28;20056;-67
2022/05/11 06:45:00;;;;;;;11.38;5.60;;;;;;;15.15;100.00;100940.22;10499711;28;20036;-67
2022/05/11 06:50:01;;;;;;;14.35;5.63;;;;;;;15.32;100.00;100951.00;10494944;28;20043;-69
2022/05/11 07:00:20;;;;;;;11.57;4.53;;;;;;;15.79;100.00;100938.53;10497481;28;20094;-68
2022/05/11 07:05:21;;;;;;;12.68;6.43;;;;;;;15.94;100.00;100921.78;10495268;28;20037;-67
2022/05/11 07:10:21;;;;;;;9.73;5.00;;;;;;;15.95;100.00;100911.50;10479468;28;20048;-67
2022/05/11 07:15:22;;;;;;;8.70;4.85;;;;;;;15.81;100.00;100914.09;10497296;28;20442;-68
2022/05/11 07:20:30;;;;;;;14.02;5.03;;;;;;;15.70;100.00;100893.06;10478012;28;20102;-68
2022/05/11 07:25:31;;;;;;;7.88;4.05;;;;;;;15.58;100.00;100889.81;10476871;28;20478;-68
2022/05/11 07:30:33;;;;;;;12.43;5.30;;;;;;;15.76;100.00;100903.03;10469615;28;20100;-68
2022/05/11 07:35:34;;;;;;;11.45;4.13;;;;;;;16.00;100.00;100910.63;10493281;28;20055;-67
2022/05/11 07:40:34;;;;;;;15.40;4.35;;;;;;;16.24;100.00;100902.38;10495603;28;20036;-68
2022/05/11 07:45:35;;;;;;;10.02;4.22;;;;;;;16.69;100.00;100909.41;10496118;28;20040;-67
2022/05/11 07:50:36;;;;;;;9.45;3.53;;;;;;;16.85;100.00;100909.28;10493468;28;20037;-69
2022/05/11 07:55:36;;;;;;;5.90;3.17;;;;;;;16.83;100.00;100917.09;10495969;28;20036;-67
2022/05/11 08:00:37;;;;;;;13.25;4.53;;;;;;;16.68;100.00;100913.34;10502970;28;20492;-68
2022/05/11 08:05:38;;;;;;;8.80;3.42;;;;;;;16.96;100.00;100908.03;10501427;28;20041;-66
2022/05/11 08:10:43;;;;;;;14.43;3.55;;;;;;;17.29;100.00;100905.41;10505026;28;20043;-67
2022/05/11 08:15:47;;;;;;;8.32;3.28;;;;;;;17.55;100.00;100890.00;10478698;28;20426;-67
2022/05/11 08:20:47;;;;;;;8.27;3.28;;;;;;;17.04;100.00;100899.03;10500195;28;20032;-67
2022/05/11 08:25:49;;;;;;;9.07;2.97;;;;;;;17.13;100.00;100891.69;10494098;28;20037;-68
2022/05/11 08:36:09;;;;;;;12.23;3.42;;;;;;;17.63;97.83;100891.28;10501833;28;20095;-68
2022/05/11 08:41:33;;;;;;;8.82;3.35;;;;;;;17.91;97.69;100885.88;10484301;28;20025;-67
2022/05/11 08:47:08;;;;;;;11.10;2.67;;;;;;;18.33;93.68;100890.44;10493632;28;20120;-68
2022/05/11 08:52:43;;;;;;;10.70;2.95;;;;;;;18.75;89.73;100874.56;10497264;28;20047;-68
2022/05/11 08:57:45;;;;;;;8.75;2.70;;;;;;;18.57;88.26;100883.84;10498393;28;20033;-68
2022/05/11 09:03:13;;;;;;;13.75;2.67;;;;;;;18.40;89.57;100889.19;10461479;28;20040;-67
2022/05/11 09:08:14;;;;;;;7.07;1.98;;;;;;;18.33;91.33;100879.28;10460307;28;20083;-68
2022/05/11 09:13:14;;;;;;;11.27;2.45;;;;;;;18.89;88.61;100891.34;10458889;28;20040;-67
2022/05/11 09:18:15;;;;;;;8.88;2.28;;;;;;;18.94;86.20;100893.22;10459416;28;20033;-67
2022/05/11 09:23:26;;;;;;;8.82;1.73;;;;;;;18.80;84.86;100884.81;10496811;28;20090;-67
2022/05/11 09:28:32;;;;;;;9.18;1.45;;;;;;;18.57;84.59;100881.06;10499403;28;20096;-68
2022/05/11 09:33:34;;;;;;;9.07;1.50;;;;;;;18.84;82.55;100899.00;10463577;28;20068;-66
2022/05/11 09:38:42;;;;;;;5.78;1.38;;;;;;;18.79;82.84;100899.94;10464538;28;20136;-67
2022/05/11 09:43:49;;;;;;;9.07;2.20;;;;;;;18.88;83.96;100884.09;10499604;28;20037;-67
2022/05/11 09:49:05;;;;;;;9.68;2.03;;;;;;;19.49;79.83;100881.97;10484650;28;20036;-66
2022/05/11 09:54:18;;;;;;;11.60;2.13;;;;;;;19.40;79.38;100883.03;10499046;28;20031;-67
2022/05/11 09:59:28;;;;;;;10.90;1.77;;;;;;;19.20;80.14;100881.50;10499844;28;20044;-69
2022/05/11 10:04:34;;;;;;;8.93;2.00;;;;;;;18.56;81.42;100871.03;10471082;28;20263;-67
2022/05/11 10:09:40;;;;;;;11.02;1.65;;;;;;;18.25;82.15;100882.78;10459323;28;20041;-67
2022/05/11 10:25:27;;;;;;;6.55;1.70;;;;;;;18.10;82.55;100885.81;10457969;28;20033;-69
2022/05/11 10:30:47;;;;;;;9.25;1.70;;;;;;;18.44;81.93;100884.66;10482488;28;20060;-69
2022/05/11 10:35:53;;;;;;;6.07;1.73;;;;;;;19.21;81.83;100880.38;10500061;28;20127;-67
2022/05/11 10:41:21;;;;;;;9.73;1.40;;;;;;;19.10;77.13;100875.00;10496350;28;20062;-68
2022/05/11 10:46:36;;;;;;;4.07;1.33;;;;;;;19.02;77.21;100864.59;10462917;28;20071;-70
2022/05/11 10:51:55;;;;;;;11.07;1.33;;;;;;;19.64;76.05;100866.00;10480264;28;20074;-69
2022/05/11 10:57:06;;;;;;;6.20;1.48;;;;;;;20.25;73.58;100842.09;10464022;28;20036;-68
2022/05/11 11:02:31;;;;;;;5.07;1.30;;;;;;;20.50;73.73;100848.16;10495950;28;20064;-68
2022/05/11 11:07:41;;;;;;;9.10;2.15;;;;;;;21.03;72.14;100858.41;10494153;28;20040;-67
2022/05/11 11:12:51;;;;;;;9.98;1.67;;;;;;;20.80;69.79;100845.69;10496858;28;20504;-68
2022/05/11 11:17:52;;;;;;;8.65;1.50;;;;;;;21.48;69.68;100844.19;10495213;28;20149;-68
2022/05/11 11:23:16;;;;;;;5.70;1.45;;;;;;;20.89;66.28;100849.31;10494309;28;20106;-69
2022/05/11 11:28:21;;;;;;;7.50;1.35;;;;;;;20.63;67.87;100836.06;10490295;28;20052;-68
2022/05/11 11:33:24;;;;;;;7.97;1.02;;;;;;;21.02;64.55;100825.94;10482914;28;20167;-68
2022/05/11 11:38:36;;;;;;;6.95;1.05;;;;;;;20.78;64.63;100826.41;10485078;28;20059;-68
2022/05/11 11:43:49;;;;;;;7.40;1.27;;;;;;;21.55;63.72;100813.69;10500072;28;20481;-69
2022/05/11 11:48:50;;;;;;;6.47;1.45;;;;;;;21.58;60.77;100802.97;10488097;28;20048;-68
2022/05/11 11:53:50;;;;;;;6.47;1.33;;;;;;;21.67;60.86;100807.41;10462756;28;20029;-68
2022/05/11 11:59:06;;;;;;;8.15;1.60;;;;;;;22.36;60.31;100778.38;10503893;28;20063;-68
2022/05/11 12:04:12;;;;;;;5.53;1.38;;;;;;;22.68;58.59;100780.91;10502076;28;20507;-67
2022/05/11 12:20:02;;;;;;;5.93;1.10;;;;;;;22.66;59.57;100791.63;10488839;28;20037;-70
2022/05/11 12:25:11;;;;;;;4.93;1.20;;;;;;;24.33;57.16;100779.47;10494413;28;20045;-68
2022/05/11 12:30:26;;;;;;;4.88;1.15;;;;;;;24.14;55.59;100770.75;10442483;28;20318;-68
2022/05/11 12:35:31;;;;;;;8.00;2.00;;;;;;;24.02;53.14;100762.28;10461363;28;20056;-68
2022/05/11 12:40:45;;;;;;;10.00;1.48;;;;;;;24.95;52.07;100771.84;10461561;28;20116;-67
2022/05/11 12:45:46;;;;;;;6.53;1.70;;;;;;;24.86;47.72;100733.72;10442753;28;20041;-69
2022/05/11 12:51:02;;;;;;;8.50;1.33;;;;;;;24.27;49.33;100738.66;10459241;28;20041;-66
2022/05/11 12:56:21;;;;;;;14.98;2.13;;;;;;;24.50;49.79;100738.22;10443208;28;20041;-68
2022/05/11 13:01:23;;;;;;;11.88;1.50;;;;;;;25.00;49.36;100733.34;10441929;28;20079;-68
2022/05/11 13:06:30;;;;;;;6.85;1.70;;;;;;;24.85;49.31;100712.38;10443154;28;20037;-68
2022/05/11 13:11:31;;;;;;;11.85;2.40;;;;;;;24.53;49.91;100717.81;10425532;28;20048;-69
2022/05/11 13:16:33;;;;;;;12.73;1.88;;;;;;;23.47;50.35;100725.00;10458882;28;20045;-67
2022/05/11 13:21:37;;;;;;;10.50;2.67;;;;;;;24.16;51.91;100746.75;10458089;28;20552;-69
2022/05/11 13:26:45;;;;;;;9.30;1.20;;;;;;;22.83;53.04;100745.81;10472223;28;20033;-67
2022/05/11 13:31:57;;;;;;;7.63;1.40;;;;;;;22.85;53.81;100737.88;10467082;28;20067;-67
2022/05/11 13:36:59;;;;;;;12.93;3.05;;;;;;;23.35;52.18;100751.03;10482720;28;20036;-67
2022/05/11 13:42:11;;;;;;;7.13;1.83;;;;;;;22.91;51.88;100751.34;10482800;28;20055;-68
2022/05/11 13:52:52;;;;;;;6.20;1.50;;;;;;;22.11;53.89;100742.84;10489863;28;20071;-67
2022/05/11 13:57:53;;;;;;;7.47;1.50;;;;;;;21.84;55.70;100760.91;10472618;28;20040;-69
2022/05/11 14:02:58;;;;;;;7.10;1.90;;;;;;;23.62;54.41;100782.53;10456010;28;20040;-67
2022/05/11 14:07:58;;;;;;;9.82;2.20;;;;;;;23.14;53.33;100765.91;10440312;28;20033;-68
2022/05/11 14:12:59;;;;;;;12.57;2.17;;;;;;;23.15;55.07;100736.69;10461583;28;20028;-70
2022/05/11 14:17:59;;;;;;;8.05;1.92;;;;;;;23.67;54.51;100728.91;10476564;28;20119;-67
2022/05/11 14:23:00;;;;;;;12.70;2.28;;;;;;;24.04;52.57;100732.66;10496647;28;20090;-68
2022/05/11 14:28:00;;;;;;;7.50;1.20;;;;;;;22.83;52.51;100735.41;10497485;28;20064;-67
2022/05/11 14:33:01;;;;;;;8.15;1.42;;;;;;;22.58;55.61;100750.41;10492959;28;20041;-68
2022/05/11 14:38:03;;;;;;;9.48;1.38;;;;;;;22.37;55.39;100723.13;10479336;28;20119;-68
2022/05/11 14:43:03;;;;;;;8.43;1.55;;;;;;;22.76;54.79;100730.31;10462841;28;20044;-71
2022/05/11 14:48:24;;;;;;;7.18;1.33;;;;;;;22.46;54.02;100726.72;10494319;28;20036;-69
2022/05/11 14:53:25;;;;;;;9.38;2.58;;;;;;;22.25;56.23;100726.66;10481793;28;20044;-68
2022/05/11 15:03:44;;;;;;;9.23;2.22;;;;;;;21.74;56.91;100722.84;10454770;28;20044;-70
2022/05/11 15:08:45;;;;;;;7.18;1.88;;;;;;;21.89;58.40;100741.94;10438180;28;20051;-69
2022/05/11 15:13:45;;;;;;;13.82;1.90;;;;;;;21.64;58.46;100731.59;10456924;28;20033;-68
2022/05/11 15:18:46;;;;;;;7.22;1.75;;;;;;;20.95;58.36;100730.47;10457821;28;20037;-68
2022/05/11 15:23:47;;;;;;;6.60;1.63;;;;;;;20.52;58.57;100720.81;10454405;28;20029;-68
2022/05/11 15:28:47;;;;;;;10.90;1.83;;;;;;;20.58;59.58;100724.31;10434678;28;20091;-70
2022/05/11 15:33:48;;;;;;;10.90;2.08;;;;;;;20.53;60.76;100736.47;10467309;28;20128;-69
2022/05/11 15:38:48;;;;;;;11.23;2.55;;;;;;;20.36;60.95;100739.19;10478156;28;20040;-67
2022/05/11 15:43:49;;;;;;;9.50;1.95;;;;;;;20.73;62.01;100743.47;10503410;28;20377;-67
2022/05/11 15:48:49;;;;;;;7.90;1.15;;;;;;;20.55;59.48;100719.38;10496487;28;20440;-67
2022/05/11 15:53:50;;;;;;;7.35;1.90;;;;;;;20.53;61.10;100719.69;10474632;28;20056;-69
2022/05/11 15:58:50;;;;;;;9.63;1.85;;;;;;;20.67;60.69;100719.59;10435486;28;20033;-68
2022/05/11 16:03:51;;;;;;;5.15;1.90;;;;;;;21.01;60.84;100700.34;10452961;28;20029;-68
2022/05/11 16:08:52;;;;;;;7.18;1.20;;;;;;;20.49;60.18;100724.28;10436736;28;20033;-68
2022/05/11 16:13:53;;;;;;;23.42;2.58;;;;;;;20.36;61.36;100711.22;10437700;28;20087;-68
2022/05/11 16:24:12;;;;;;;5.95;1.30;;;;;;;19.41;61.39;100712.41;10445042;28;20638;-69
2022/05/11 16:29:19;;;;;;;6.18;1.92;;;;;;;19.42;62.86;100725.22;10425099;28;20049;-68
2022/05/11 16:34:20;;;;;;;8.65;1.98;;;;;;;18.98;62.23;100724.06;10444210;28;20033;-68
2022/05/11 16:39:23;;;;;;;6.85;1.10;;;;;;;18.79;63.81;100726.16;10476515;28;20037;-67
2022/05/11 16:44:23;;;;;;;10.32;1.20;;;;;;;18.69;64.05;100730.81;10463275;28;20063;-68
2022/05/11 16:49:24;;;;;;;8.60;1.70;;;;;;;18.43;64.19;100738.88;10459407;28;20082;-68
2022/05/11 16:54:25;;;;;;;8.27;1.95;;;;;;;18.09;65.67;100722.59;10457408;28;20064;-67
2022/05/11 16:59:25;;;;;;;7.65;1.90;;;;;;;17.76;66.16;100739.34;10457535;28;20025;-67
2022/05/11 17:04:26;;;;;;;5.70;1.75;;;;;;;17.45;68.17;100741.81;10477060;28;20029;-67
2022/05/11 17:09:26;;;;;;;8.00;1.42;;;;;;;17.28;68.63;100750.69;10464117;28;20036;-67
2022/05/11 17:14:28;;;;;;;9.52;1.55;;;;;;;16.32;69.26;100621.97;10499678;28;20029;-67
2022/05/11 17:19:28;;;;;;;11.70;3.20;;;;;;;16.96;70.11;100752.31;10469771;28;20041;-67
2022/05/11 17:24:29;;;;;;;10.02;2.03;;;;;;;16.84;70.90;100733.28;10446402;28;20079;-67
2022/05/11 17:29:29;;;;;;;11.05;1.55;;;;;;;16.69;72.15;100745.41;10471184;28;20041;-66
2022/05/11 17:34:30;;;;;;;8.75;1.42;;;;;;;16.47;74.04;100743.19;10472533;28;20065;-69
2022/05/11 17:39:30;;;;;;;16.17;2.47;;;;;;;16.39;75.01;100743.03;10435481;28;20057;-68
2022/05/11 17:44:31;;;;;;;13.75;1.95;;;;;;;16.35;76.24;100742.81;10440982;28;20045;-68
2022/05/11 17:49:31;;;;;;;12.60;2.05;;;;;;;16.28;78.92;100740.38;10456226;28;20047;-68
2022/05/11 17:54:32;;;;;;;10.20;1.83;;;;;;;16.15;79.30;100743.88;10452371;28;20049;-67
2022/05/11 17:59:32;;;;;;;8.25;2.10;;;;;;;16.00;81.22;100757.91;10444975;28;20033;-68
2022/05/11 18:04:33;;;;;;;14.50;3.60;;;;;;;15.84;85.54;100755.28;10468552;28;20036;-69
2022/05/11 18:09:33;;;;;;;8.13;2.10;;;;;;;15.71;89.87;100745.69;10497534;28;20417;-67
2022/05/11 18:14:34;;;;;;;9.77;2.38;;;;;;;15.38;98.23;100766.78;10456360;28;20485;-69
2022/05/11 18:19:35;;;;;;;12.75;2.42;;;;;;;15.11;100.00;100776.38;10421089;28;20064;-68
2022/05/11 18:24:35;;;;;;;14.95;2.33;;;;;;;15.00;100.00;100777.56;10455223;28;20394;-68
2022/05/11 18:29:36;;;;;;;9.48;2.30;;;;;;;14.90;100.00;100788.69;10438406;28;20029;-67
2022/05/11 18:34:38;;;;;;;12.00;3.13;;;;;;;14.11;100.00;100708.94;10422547;28;20064;-68
2022/05/11 18:39:38;;;;;;;10.38;2.85;;;;;;;14.26;100.00;100793.06;10423805;28;20508;-68
2022/05/11 18:44:40;;;;;;;15.52;3.55;;;;;;;13.92;100.00;100782.63;10422408;28;20041;-67
2022/05/11 18:49:40;;;;;;;9.75;3.08;;;;;;;13.74;100.00;100775.72;10455432;28;20041;-68
2022/05/11 18:54:41;;;;;;;11.35;2.20;;;;;;;13.49;100.00;100774.63;10435982;28;20041;-68
2022/05/11 18:59:41;;;;;;;14.35;2.38;;;;;;;13.27;100.00;100774.03;10454042;28;20040;-68
2022/05/11 19:04:42;;;;;;;9.05;2.78;;;;;;;13.06;100.00;100768.50;10435321;28;20040;-67
2022/05/11 19:09:42;;;;;;;12.60;2.45;;;;;;;13.08;100.00;100758.00;10455378;28;20071;-67
2022/05/11 19:14:43;;;;;;;11.65;2.88;;;;;;;13.13;100.00;100760.75;10458762;28;20040;-69
2022/05/11 19:19:44;;;;;;;11.98;2.45;;;;;;;13.21;100.00;100769.59;10461710;28;20048;-68
2022/05/11 19:24:44;;;;;;;14.35;2.78;;;;;;;13.20;100.00;100754.13;10452905;28;20092;-69
2022/05/11 19:29:46;;;;;;;11.70;2.38;;;;;;;13.23;100.00;100750.81;10454393;28;20044;-69
2022/05/11 19:34:46;;;;;;;7.32;2.72;;;;;;;13.25;100.00;100762.41;10453941;28;20037;-69
2022/05/11 19:39:47;;;;;;;11.55;2.38;;;;;;;13.26;100.00;100766.84;10455419;28;20045;-69
2022/05/11 19:44:47;;;;;;;6.00;2.67;;;;;;;13.16;100.00;100758.56;10454969;28;20044;-70
2022/05/11 19:49:48;;;;;;;13.23;2.78;;;;;;;13.13;100.00;100748.88;10436430;28;20037;-69
2022/05/11 19:54:48;;;;;;;10.15;2.78;;;;;;;13.10;100.00;100753.03;10442378;28;20115;-68
2022/05/11 19:59:49;;;;;;;16.50;2.50;;;;;;;13.06;100.00;100732.56;10461483;28;20509;-70
2022/05/11 20:04:49;;;;;;;12.27;2.88;;;;;;;13.21;100.00;100751.09;10443573;28;20287;-69
2022/05/11 20:09:50;;;;;;;8.60;2.30;;;;;;;13.19;100.00;100752.47;10462320;28;20044;-69
2022/05/11 20:14:51;;;;;;;10.65;2.45;;;;;;;13.15;100.00;100751.34;10426700;28;20044;-69
2022/05/11 20:19:51;;;;;;;10.07;2.38;;;;;;;13.26;100.00;100758.56;10459585;28;20041;-69
2022/05/11 20:24:52;;;;;;;12.85;2.58;;;;;;;13.20;100.00;100759.66;10458972;28;20033;-69
2022/05/11 20:29:52;;;;;;;12.68;3.30;;;;;;;13.08;100.00;100741.41;10441882;28;20036;-69
2022/05/11 20:35:05;;;;;;;9.00;2.50;;;;;;;13.12;100.00;100761.88;10458890;28;20037;-70
2022/05/11 20:40:08;;;;;;;13.15;3.05;;;;;;;13.08;100.00;100758.00;10496761;28;20044;-69
2022/05/11 20:45:12;;;;;;;10.77;2.88;;;;;;;12.98;100.00;100741.41;10498395;28;20098;-69
2022/05/11 20:50:12;;;;;;;13.43;4.20;;;;;;;13.03;100.00;100735.03;10467212;28;20036;-69
2022/05/11 20:55:17;;;;;;;10.57;3.60;;;;;;;13.06;100.00;100740.00;10465874;28;20113;-69
2022/05/11 21:00:19;;;;;;;10.63;3.80;;;;;;;13.05;100.00;100733.66;10481866;28;20471;-69
2022/05/11 21:05:19;;;;;;;15.60;5.25;;;;;;;12.97;100.00;100717.63;10499835;28;20041;-69
2022/05/11 21:10:22;;;;;;;12.93;4.22;;;;;;;13.02;100.00;100719.56;10482295;28;20029;-69
2022/05/11 21:15:22;;;;;;;11.20;4.03;;;;;;;13.13;100.00;100726.75;10498450;28;20051;-70
2022/05/11 21:20:25;;;;;;;13.27;3.55;;;;;;;13.20;100.00;100716.25;10481523;28;20058;-69
2022/05/11 21:25:25;;;;;;;7.47;3.72;;;;;;;13.27;100.00;100716.81;10482111;28;20043;-70
2022/05/11 21:30:26;;;;;;;7.25;3.58;;;;;;;13.32;100.00;100707.72;10492410;28;20039;-68
2022/05/11 21:35:26;;;;;;;7.85;3.33;;;;;;;13.37;100.00;100704.94;10465185;28;20045;-68
2022/05/11 21:40:27;;;;;;;10.60;3.55;;;;;;;13.41;100.00;100694.97;10458128;28;20044;-68
2022/05/11 21:45:28;;;;;;;8.32;3.30;;;;;;;13.47;100.00;100687.53;10457452;28;20037;-71
2022/05/11 21:50:28;;;;;;;4.90;2.80;;;;;;;13.39;100.00;100688.09;10440953;28;20076;-69
2022/05/11 21:55:29;;;;;;;6.75;2.55;;;;;;;13.56;100.00;100701.63;10440314;28;20049;-69
2022/05/11 22:00:29;;;;;;;9.65;3.08;;;;;;;13.58;100.00;100691.09;10458828;28;20048;-70
2022/05/11 22:05:30;;;;;;;6.68;2.97;;;;;;;13.60;100.00;100675.91;10460913;28;20108;-69
2022/05/11 22:10:30;;;;;;;12.80;3.08;;;;;;;13.56;100.00;100679.47;10440774;28;20103;-69
2022/05/11 22:15:31;;;;;;;11.88;3.50;;;;;;;13.52;100.00;100674.53;10457301;28;20033;-69
2022/05/11 22:20:33;;;;;;;15.32;3.83;;;;;;;13.54;100.00;100693.63;10439840;28;20041;-69
2022/05/11 22:25:35;;;;;;;14.98;3.85;;;;;;;13.58;100.00;100688.34;10455790;28;20041;-68
2022/05/11 22:30:40;;;;;;;6.38;2.67;;;;;;;13.43;100.00;100690.00;10455868;28;20485;-68
2022/05/11 22:35:44;;;;;;;8.60;2.57;;;;;;;13.43;100.00;100714.91;10457436;28;20128;-68
2022/05/11 22:40:44;;;;;;;8.38;2.08;;;;;;;13.36;100.00;100708.81;10465061;28;20029;-70
2022/05/11 22:45:45;;;;;;;7.20;2.00;;;;;;;13.23;100.00;100706.56;10477576;28;20104;-70
2022/05/11 22:50:49;;;;;;;10.65;1.80;;;;;;;13.34;100.00;100738.69;10495926;28;20037;-68
2022/05/11 22:55:50;;;;;;;12.35;3.53;;;;;;;13.23;100.00;100770.16;10496495;28;20086;-70
2022/05/11 23:00:51;;;;;;;8.80;2.67;;;;;;;13.02;100.00;100775.69;10454522;28;20037;-67
2022/05/11 23:05:52;;;;;;;7.55;2.55;;;;;;;12.85;100.00;100769.53;10437623;28;20036;-72
2022/05/11 23:10:52;;;;;;;11.25;2.55;;;;;;;12.74;100.00;100790.78;10454470;28;20060;-67
2022/05/11 23:15:53;;;;;;;9.70;2.63;;;;;;;12.67;100.00;100799.31;10438214;28;20096;-68
2022/05/11 23:20:53;;;;;;;8.95;2.28;;;;;;;12.56;100.00;100816.94;10455192;28;20053;-67
2022/05/11 23:25:54;;;;;;;10.75;2.40;;;;;;;12.54;100.00;100824.66;10454687;28;20041;-68
2022/05/11 23:30:55;;;;;;;11.38;3.08;;;;;;;12.40;100.00;100845.56;10469033;28;20036;-66
2022/05/11 23:35:55;;;;;;;15.60;3.60;;;;;;;12.24;100.00;100858.47;10470350;28;20036;-68
2022/05/11 23:40:56;;;;;;;7.07;2.70;;;;;;;12.07;100.00;100894.47;10451639;28;20036;-67
2022/05/11 23:45:56;;;;;;;4.55;1.20;;;;;;;11.44;100.00;100861.06;10469967;28;20090;-66
2022/05/11 23:50:57;;;;;;;8.30;1.33;;;;;;;11.42;100.00;100924.72;10468821;28;20323;-68
2022/05/11 23:55:57;;;;;;;3.10;0.80;;;;;;;11.19;100.00;100952.56;10466141;28;20037;-67
